createdAt,value
2022-12-31T00:00:50.111Z,10.70
2022-12-31T00:03:28.519Z,9.10
2022-12-31T00:05:56.304Z,11.50
2022-12-31T00:08:24.047Z,9.30
2022-12-31T00:10:51.968Z,9.60
2022-12-31T00:13:19.687Z,10.90
2022-12-31T00:15:47.403Z,8.90
2022-12-31T00:18:15.015Z,9.90
2022-12-31T00:20:42.833Z,8.20
2022-12-31T00:23:11.236Z,8.70
2022-12-31T00:25:39.297Z,10.60
2022-12-31T00:28:07.079Z,8.20
2022-12-31T00:30:34.799Z,8.90
2022-12-31T00:33:02.605Z,8.70
2022-12-31T00:35:30.982Z,8.70
2022-12-31T00:37:58.735Z,9.70
2022-12-31T00:40:28.547Z,9.40
2022-12-31T00:42:56.309Z,6.70
2022-12-31T00:45:23.977Z,8.40
2022-12-31T00:47:51.679Z,8.10
2022-12-31T00:50:19.397Z,10.00
2022-12-31T00:52:47.162Z,8.30
2022-12-31T00:55:14.802Z,9.80
2022-12-31T00:57:42.544Z,9.00
2022-12-31T07:00:15.113Z,5.80
2022-12-31T07:03:15.405Z,6.30
2022-12-31T07:05:51.721Z,6.00
2022-12-31T07:08:29.628Z,6.10
2022-12-31T07:11:07.418Z,7.70
2022-12-31T07:13:52.399Z,6.70
2022-12-31T07:16:37.567Z,7.00
2022-12-31T07:19:14.653Z,7.50
2022-12-31T07:21:43.741Z,7.00
2022-12-31T07:24:12.680Z,6.20
2022-12-31T07:27:00.241Z,7.80
2022-12-31T07:29:43.064Z,6.20
2022-12-31T07:32:32.399Z,6.50
2022-12-31T07:35:09.573Z,7.60
2022-12-31T07:38:00.751Z,7.20
2022-12-31T07:40:34.587Z,8.10
2022-12-31T07:43:30.162Z,6.00
2022-12-31T07:46:19.656Z,6.60
2022-12-31T07:48:47.799Z,6.30
2022-12-31T07:51:16.117Z,6.70
2022-12-31T07:53:43.783Z,6.80
2022-12-31T07:56:11.604Z,5.60
2022-12-31T07:58:48.375Z,6.30
2022-12-31T08:01:20.285Z,6.90
2022-12-31T08:04:01.084Z,5.90
2022-12-31T08:06:53.128Z,6.80
2022-12-31T08:09:39.551Z,6.20
2022-12-31T08:12:08.208Z,9.80
2022-12-31T08:14:48.077Z,6.40
2022-12-31T08:17:20.507Z,6.70
2022-12-31T08:19:48.784Z,6.00
2022-12-31T08:22:19.576Z,5.70
2022-12-31T08:25:13.355Z,7.60
2022-12-31T08:28:16.490Z,7.80
2022-12-31T08:31:09.766Z,6.30
2022-12-31T08:33:53.717Z,7.10
2022-12-31T08:36:41.857Z,5.70
2022-12-31T08:39:43.404Z,6.80
2022-12-31T08:42:30.497Z,5.70
2022-12-31T08:45:00.884Z,5.60
2022-12-31T08:47:44.359Z,5.50
2022-12-31T08:50:17.903Z,6.00
2022-12-31T08:52:46.669Z,5.20
2022-12-31T08:55:16.611Z,6.20
2022-12-31T08:57:50.633Z,5.60
2022-12-31T09:00:20.167Z,5.10
2022-12-31T09:03:00.185Z,4.90
2022-12-31T09:05:46.349Z,6.70
2022-12-31T09:08:22.160Z,5.40
2022-12-31T09:10:52.690Z,5.40
2022-12-31T09:13:43.665Z,4.50
2022-12-31T09:17:00.419Z,4.50
2022-12-31T09:19:28.182Z,5.00
2022-12-31T09:21:56.645Z,5.10
2022-12-31T09:24:24.837Z,5.80
2022-12-31T09:27:08.276Z,6.90
2022-12-31T09:29:48.233Z,6.20
2022-12-31T09:32:36.922Z,5.40
2022-12-31T09:35:26.541Z,4.30
2022-12-31T09:38:14.109Z,5.30
2022-12-31T09:40:57.415Z,5.10
2022-12-31T09:43:47.023Z,4.60
2022-12-31T09:46:23.767Z,4.10
2022-12-31T09:49:22.067Z,4.30
2022-12-31T09:52:14.403Z,4.40
2022-12-31T09:55:12.971Z,3.40
2022-12-31T09:58:02.774Z,4.10
2022-12-31T10:00:44.359Z,3.30
2022-12-31T10:03:49.164Z,3.80
2022-12-31T10:06:21.156Z,4.50
2022-12-31T10:08:58.313Z,3.70
2022-12-31T10:11:41.023Z,4.00
2022-12-31T10:14:43.702Z,4.30
2022-12-31T10:17:42.070Z,4.50
2022-12-31T10:20:33.031Z,4.40
2022-12-31T10:23:19.382Z,4.40
2022-12-31T10:26:03.132Z,3.60
2022-12-31T10:28:59.773Z,4.00
2022-12-31T10:31:30.142Z,3.80
2022-12-31T10:34:26.825Z,3.50
2022-12-31T10:37:02.382Z,4.00
2022-12-31T10:39:46.092Z,3.80
2022-12-31T10:45:26.675Z,3.80
2022-12-31T10:48:13.233Z,3.80
2022-12-31T10:51:19.295Z,4.00
2022-12-31T10:54:05.083Z,4.00
2022-12-31T10:56:44.621Z,3.50
2022-12-31T10:59:27.409Z,7.50
2022-12-31T11:02:07.494Z,5.30
2022-12-31T11:07:58.420Z,4.10
2022-12-31T11:10:53.689Z,3.20
2022-12-31T11:13:42.249Z,4.40
2022-12-31T11:16:53.611Z,4.20
2022-12-31T11:19:34.426Z,3.20
2022-12-31T11:22:05.023Z,4.20
2022-12-31T11:24:53.968Z,4.30
2022-12-31T11:27:33.546Z,4.10
2022-12-31T11:30:21.563Z,3.70
2022-12-31T11:33:20.103Z,3.70
2022-12-31T11:36:06.331Z,6.10
2022-12-31T11:38:46.187Z,4.20
2022-12-31T11:41:26.043Z,4.50
2022-12-31T11:44:07.373Z,4.50
2022-12-31T11:46:59.145Z,3.10
2022-12-31T11:49:58.963Z,3.50
2022-12-31T11:52:55.002Z,3.30
2022-12-31T11:55:35.125Z,2.90
2022-12-31T11:58:16.629Z,3.40
2022-12-31T12:00:55.952Z,3.00
2022-12-31T12:03:24.732Z,3.00
2022-12-31T12:05:52.763Z,3.30
2022-12-31T12:08:22.431Z,3.50
2022-12-31T12:11:05.425Z,3.70
2022-12-31T12:13:35.202Z,4.80
2022-12-31T12:16:08.172Z,3.10
2022-12-31T12:18:46.936Z,4.30
2022-12-31T12:21:18.520Z,3.20
2022-12-31T12:24:00.217Z,3.00
2022-12-31T12:26:41.612Z,3.00
2022-12-31T12:29:18.866Z,3.20
2022-12-31T12:32:06.349Z,3.30
2022-12-31T12:34:37.564Z,3.10
2022-12-31T12:37:08.368Z,3.10
2022-12-31T12:39:36.844Z,3.30
2022-12-31T12:42:13.089Z,3.30
2022-12-31T12:44:42.101Z,3.10
2022-12-31T12:47:16.019Z,3.70
2022-12-31T12:49:49.075Z,3.60
2022-12-31T12:52:59.219Z,4.60
2022-12-31T12:55:41.410Z,4.30
2022-12-31T12:58:44.343Z,4.00
2022-12-31T13:01:47.513Z,3.70
2022-12-31T13:04:36.816Z,3.70
2022-12-31T13:07:13.392Z,3.60
2022-12-31T13:09:48.301Z,3.80
2022-12-31T13:13:05.218Z,3.40
2022-12-31T13:15:29.610Z,3.50
2022-12-31T13:18:11.089Z,3.70
2022-12-31T13:20:52.864Z,3.50
2022-12-31T13:23:39.644Z,5.30
2022-12-31T13:26:16.376Z,3.30
2022-12-31T13:28:47.095Z,3.70
2022-12-31T13:31:24.004Z,3.50
2022-12-31T13:34:00.239Z,4.10
2022-12-31T13:36:32.816Z,3.20
2022-12-31T13:39:07.845Z,3.30
2022-12-31T13:41:52.607Z,3.90
2022-12-31T13:44:41.910Z,4.00
2022-12-31T13:47:20.697Z,3.90
2022-12-31T13:50:22.524Z,4.40
2022-12-31T13:53:03.222Z,4.00
2022-12-31T13:55:41.606Z,3.60
2022-12-31T13:58:22.232Z,3.60
2022-12-31T14:01:09.594Z,3.70
2022-12-31T14:04:20.193Z,3.50
2022-12-31T14:07:18.170Z,3.60
2022-12-31T14:09:46.854Z,4.20
2022-12-31T14:12:54.915Z,5.10
2022-12-31T14:15:31.188Z,4.60
2022-12-31T14:18:17.867Z,3.60
2022-12-31T14:20:47.676Z,4.60
2022-12-31T14:23:31.325Z,4.60
2022-12-31T14:26:03.554Z,4.60
2022-12-31T14:29:01.633Z,3.40
2022-12-31T14:32:13.305Z,3.60
2022-12-31T14:35:19.055Z,4.80
2022-12-31T14:38:12.105Z,9.20
2022-12-31T14:41:13.119Z,3.60
2022-12-31T14:43:58.946Z,4.90
2022-12-31T14:46:35.512Z,4.80
2022-12-31T14:49:14.781Z,4.00
2022-12-31T14:51:42.487Z,3.10
2022-12-31T14:54:29.113Z,3.40
2022-12-31T14:56:57.119Z,3.30
2022-12-31T14:59:38.797Z,4.00
2022-12-31T15:02:34.610Z,3.30
2022-12-31T15:05:17.901Z,3.50
2022-12-31T15:10:26.548Z,3.70
2022-12-31T15:13:07.784Z,3.10
2022-12-31T15:15:58.798Z,3.80
2022-12-31T15:18:42.683Z,3.90
2022-12-31T15:21:46.874Z,3.60
2022-12-31T15:24:31.407Z,2.90
2022-12-31T15:27:03.093Z,3.90
2022-12-31T15:32:07.745Z,3.10
2022-12-31T15:37:26.009Z,2.80
2022-12-31T15:40:25.285Z,4.40
2022-12-31T15:42:58.611Z,4.80
2022-12-31T15:45:33.228Z,4.10
2022-12-31T15:48:05.570Z,4.10
2022-12-31T15:50:39.175Z,3.80
2022-12-31T15:53:07.757Z,4.00
2022-12-31T15:55:46.446Z,4.00
2022-12-31T15:58:17.946Z,4.10
2022-12-31T16:01:15.024Z,3.80
2022-12-31T16:03:47.855Z,3.60
2022-12-31T16:06:16.691Z,3.60
2022-12-31T16:08:46.794Z,4.40
2022-12-31T16:11:15.607Z,3.50
2022-12-31T16:13:47.098Z,3.10
2022-12-31T16:16:26.522Z,3.10
2022-12-31T16:18:55.352Z,3.70
2022-12-31T16:21:32.744Z,3.40
2022-12-31T16:24:06.853Z,4.10
2022-12-31T16:26:43.420Z,4.30
2022-12-31T16:29:16.715Z,3.80
2022-12-31T16:31:46.000Z,4.60
2022-12-31T16:34:25.650Z,4.40
2022-12-31T16:37:00.802Z,4.00
2022-12-31T16:39:32.692Z,5.10
2022-12-31T16:42:20.033Z,5.80
2022-12-31T16:44:49.150Z,4.60
2022-12-31T16:47:19.485Z,4.80
2022-12-31T16:50:10.233Z,4.80
2022-12-31T16:52:43.657Z,6.00
2022-12-31T16:55:18.834Z,5.70
2022-12-31T16:57:54.164Z,4.20
2022-12-31T17:00:25.103Z,4.10
2022-12-31T17:02:59.129Z,3.90
2022-12-31T17:05:28.423Z,3.10
2022-12-31T17:07:56.392Z,3.80
2022-12-31T17:10:26.462Z,3.90
2022-12-31T17:13:27.096Z,4.50
2022-12-31T17:15:48.370Z,4.40
2022-12-31T17:18:22.276Z,5.20
2022-12-31T17:20:55.270Z,4.70
2022-12-31T17:23:31.714Z,3.90
2022-12-31T17:26:04.765Z,5.20
2022-12-31T17:28:41.661Z,10.20
2022-12-31T17:31:28.328Z,5.10
2022-12-31T17:34:14.464Z,3.90
2022-12-31T17:36:54.725Z,4.00
2022-12-31T17:39:24.328Z,3.90
2022-12-31T17:41:56.190Z,4.70
2022-12-31T17:44:28.651Z,3.80
2022-12-31T17:46:56.392Z,4.10
2022-12-31T17:49:28.777Z,3.70
2022-12-31T17:51:56.584Z,4.10
2022-12-31T17:54:24.628Z,4.10
2022-12-31T17:56:53.632Z,4.10
2022-12-31T17:59:24.200Z,3.80
2022-12-31T18:01:53.410Z,4.00
2022-12-31T18:04:21.701Z,4.40
2022-12-31T18:06:49.360Z,4.20
2022-12-31T18:09:18.118Z,4.20
2022-12-31T18:11:46.494Z,4.40
2022-12-31T18:14:15.551Z,3.40
2022-12-31T18:16:43.544Z,3.90
2022-12-31T18:19:37.715Z,3.60
2022-12-31T18:22:03.539Z,3.30
2022-12-31T18:24:31.304Z,3.80
2022-12-31T18:26:59.245Z,4.40
2022-12-31T18:29:26.935Z,3.90
2022-12-31T18:31:54.852Z,4.20
2022-12-31T18:34:22.634Z,5.20
2022-12-31T18:36:50.522Z,7.00
2022-12-31T18:39:18.251Z,4.60
2022-12-31T18:41:51.663Z,4.50
2022-12-31T18:44:19.531Z,4.60
2022-12-31T18:46:47.388Z,4.40
2022-12-31T18:49:15.121Z,4.30
2022-12-31T18:51:42.779Z,4.50
2022-12-31T18:54:12.337Z,4.10
2022-12-31T18:56:46.552Z,4.20
2022-12-31T18:59:15.063Z,5.20
2022-12-31T19:01:43.085Z,4.40
2022-12-31T19:04:26.512Z,4.70
2022-12-31T19:06:56.078Z,5.00
2022-12-31T19:09:44.648Z,5.10
2022-12-31T19:12:14.155Z,5.20
2022-12-31T19:14:42.145Z,5.50
2022-12-31T19:19:36.474Z,4.60
2022-12-31T19:22:04.230Z,5.30
2022-12-31T19:24:32.035Z,5.00
2022-12-31T19:27:01.524Z,4.30
2022-12-31T19:29:30.216Z,4.50
2022-12-31T19:32:00.669Z,6.60
2022-12-31T19:34:28.378Z,4.60
2022-12-31T19:36:56.205Z,4.00
2022-12-31T19:39:23.974Z,5.30
2022-12-31T19:41:58.887Z,4.60
2022-12-31T19:44:27.356Z,4.20
2022-12-31T19:46:55.265Z,4.20
2022-12-31T19:49:23.522Z,4.30
2022-12-31T19:51:51.169Z,4.00
2022-12-31T19:54:18.956Z,4.50
2022-12-31T19:56:46.594Z,3.90
2022-12-31T19:59:14.699Z,3.40
2022-12-31T20:01:42.464Z,3.40
2022-12-31T20:04:10.383Z,4.40
2022-12-31T20:06:38.189Z,3.60
2022-12-31T20:09:05.903Z,4.50
2022-12-31T20:11:33.635Z,4.90
2022-12-31T20:14:01.337Z,4.50
2022-12-31T20:16:33.799Z,4.50
2022-12-31T20:19:02.175Z,3.80
2022-12-31T20:21:29.878Z,6.10
2022-12-31T20:23:57.845Z,4.00
2022-12-31T20:26:26.536Z,4.20
2022-12-31T20:28:54.709Z,5.60
2022-12-31T20:31:25.293Z,4.90
2022-12-31T20:33:54.377Z,4.90
2022-12-31T20:36:23.278Z,4.50
2022-12-31T20:38:51.179Z,3.80
2022-12-31T20:41:21.816Z,4.00
2022-12-31T20:43:50.268Z,3.90
2022-12-31T20:46:21.646Z,5.40
2022-12-31T20:48:51.648Z,4.90
2022-12-31T20:51:20.379Z,8.50
2022-12-31T20:54:10.136Z,6.40
2022-12-31T20:56:39.865Z,5.90
2022-12-31T20:59:09.190Z,3.80
2022-12-31T21:02:11.608Z,4.10
2022-12-31T21:04:25.981Z,5.50
2022-12-31T21:06:53.819Z,4.70
2022-12-31T21:09:21.556Z,4.50
2022-12-31T21:12:08.120Z,4.20
2022-12-31T21:14:39.875Z,4.40
2022-12-31T21:17:10.660Z,4.90
2022-12-31T21:19:38.467Z,4.30
2022-12-31T21:22:06.197Z,4.60
2022-12-31T21:24:33.962Z,5.70
2022-12-31T21:27:01.733Z,3.90
2022-12-31T21:29:34.383Z,4.00
2022-12-31T21:32:03.583Z,4.10
2022-12-31T21:34:31.372Z,4.10
2022-12-31T21:36:59.068Z,4.40
2022-12-31T21:39:26.747Z,4.00
2022-12-31T21:41:54.503Z,5.60
2022-12-31T21:44:26.152Z,5.60
2022-12-31T21:47:38.623Z,5.80
2022-12-31T21:50:08.116Z,4.40
2022-12-31T21:52:35.930Z,3.90
2022-12-31T21:55:23.497Z,3.80
2022-12-31T21:58:24.654Z,3.60
2022-12-31T22:00:58.917Z,3.20
2022-12-31T22:03:28.229Z,5.10
2022-12-31T22:06:14.571Z,4.10
2022-12-31T22:08:44.698Z,4.40
2022-12-31T22:11:13.496Z,4.10
2022-12-31T22:13:42.762Z,4.50
2022-12-31T22:16:13.282Z,4.30
2022-12-31T22:18:44.102Z,4.40
2022-12-31T22:21:19.757Z,4.10
2022-12-31T22:23:50.148Z,3.80
2022-12-31T22:26:20.152Z,4.40
2022-12-31T22:28:48.476Z,3.50
2022-12-31T22:31:19.019Z,4.00
2022-12-31T22:33:47.477Z,4.10
2022-12-31T22:36:18.040Z,4.00
2022-12-31T22:38:46.228Z,3.70
2022-12-31T22:41:19.897Z,4.30
2022-12-31T22:43:57.208Z,3.50
2022-12-31T22:46:30.485Z,3.30
2022-12-31T22:49:00.167Z,3.60
2022-12-31T22:51:54.782Z,3.70
2022-12-31T22:54:16.985Z,3.80
2022-12-31T22:56:44.672Z,3.50
2022-12-31T22:59:12.353Z,3.40
2022-12-31T23:01:40.787Z,19.50
2022-12-31T23:04:08.683Z,10.80
2022-12-31T23:06:47.452Z,23.80
2022-12-31T23:09:35.823Z,15.80
2022-12-31T23:12:05.837Z,12.90
2022-12-31T23:14:52.901Z,13.40
2022-12-31T23:17:42.358Z,11.90
2022-12-31T23:20:35.731Z,13.70
2022-12-31T23:23:10.523Z,8.70
2022-12-31T23:25:50.532Z,8.80
2022-12-31T23:28:21.764Z,6.90
2022-12-31T23:33:22.828Z,5.60
2022-12-31T23:38:18.982Z,5.00
2022-12-31T23:40:46.852Z,5.90
2022-12-31T23:43:21.161Z,6.40
2022-12-31T23:45:51.216Z,6.60
2022-12-31T23:48:18.949Z,5.10
2022-12-31T23:50:53.525Z,3.60
2022-12-31T23:53:24.955Z,3.80
2022-12-31T23:55:54.139Z,2.90
2022-12-31T23:58:22.538Z,3.40
